Time;durP1;ratioP1;P1;durP2;ratioP2;P2;SDS_P1;SDS_P2;PMS_P1;PMS_P2;Temp;Humidity;BMP_temperature;BMP_pressure;BME280_temperature;BME280_humidity;BME280_pressure;Samples;Min_cycle;Max_cycle;Signal;HPM_P1;HPM_P2
2023/08/21 00:08:47;;;;;;;17.70;15.10;;;;;;;24.53;96.02;100823.61;673268;1263;140103;-80
2023/08/21 00:23:50;;;;;;;20.10;15.80;;;;;;;24.48;95.79;100814.48;672040;1262;139724;-79
2023/08/21 00:38:53;;;;;;;20.50;16.20;;;;;;;24.47;97.04;100830.50;672232;1265;139699;-78
2023/08/21 00:53:58;;;;;;;23.10;16.20;;;;;;;24.57;97.34;100832.88;674063;1264;141206;-78
2023/08/21 01:09:07;;;;;;;20.40;14.30;;;;;;;24.67;97.09;100842.62;674914;1263;139546;-78
2023/08/21 01:24:11;;;;;;;17.40;12.80;;;;;;;24.72;96.65;100854.73;673573;1264;138647;-78
2023/08/21 01:39:16;;;;;;;17.20;12.50;;;;;;;24.66;95.86;100850.22;673320;1265;139597;-78
2023/08/21 01:54:20;;;;;;;15.70;12.00;;;;;;;24.56;95.95;100845.77;674471;1263;139853;-79
2023/08/21 02:09:23;;;;;;;15.30;11.60;;;;;;;24.51;95.37;100851.96;674176;1260;141290;-80
2023/08/21 02:24:27;;;;;;;14.10;12.30;;;;;;;24.45;96.20;100860.33;673097;1263;142939;-80
2023/08/21 02:39:30;;;;;;;15.40;11.70;;;;;;;24.62;95.74;100855.80;674758;1264;141349;-80
2023/08/21 03:00:47;;;;;;;16.00;11.90;;;;;;;24.39;98.17;100857.40;654832;1308;545101;-80
2023/08/21 03:15:50;;;;;;;14.40;10.80;;;;;;;24.27;98.63;100850.84;667769;1270;140093;-78
2023/08/21 03:30:53;;;;;;;13.60;10.30;;;;;;;24.24;98.68;100845.86;671067;1264;139651;-79
2023/08/21 03:45:57;;;;;;;15.80;12.20;;;;;;;24.23;99.03;100833.77;675329;1267;141832;-79
2023/08/21 04:01:00;;;;;;;20.90;12.80;;;;;;;24.43;98.64;100835.14;674439;1265;140150;-79
2023/08/21 04:16:04;;;;;;;17.30;12.30;;;;;;;24.52;98.75;100833.20;675408;1265;139744;-79
2023/08/21 04:31:08;;;;;;;19.40;13.20;;;;;;;24.71;97.12;100826.32;676003;1266;141656;-79
2023/08/21 04:46:11;;;;;;;19.10;13.20;;;;;;;24.66;96.93;100831.00;669331;1267;140910;-79
2023/08/21 05:01:16;;;;;;;20.80;12.60;;;;;;;24.88;97.59;100850.92;670308;1266;140290;-79
2023/08/21 05:16:21;;;;;;;18.80;13.60;;;;;;;25.08;97.62;100853.88;668830;1266;139523;-79
2023/08/21 05:31:24;;;;;;;19.60;12.80;;;;;;;25.36;96.09;100856.52;668344;1266;139403;-79
2023/08/21 05:46:29;;;;;;;15.90;11.90;;;;;;;25.68;95.74;100860.86;669181;1266;140858;-79
2023/08/21 06:01:33;;;;;;;13.70;10.10;;;;;;;27.42;92.33;100869.30;668656;1266;140405;-78
2023/08/21 06:16:36;;;;;;;11.50;8.70;;;;;;;29.71;84.34;100877.52;668156;1276;139422;-78
2023/08/21 06:31:40;;;;;;;11.60;8.30;;;;;;;32.30;73.68;100892.16;669662;1263;140763;-78
2023/08/21 06:46:44;;;;;;;18.40;9.70;;;;;;;31.12;71.19;100908.05;668897;1269;138996;-78
2023/08/21 07:01:47;;;;;;;14.30;8.40;;;;;;;29.37;74.15;100914.30;670375;1267;142705;-79
2023/08/21 07:16:50;;;;;;;10.90;7.50;;;;;;;31.38;69.61;100915.41;672665;1263;140201;-79
2023/08/21 07:31:54;;;;;;;13.40;7.10;;;;;;;30.86;66.93;100935.02;668084;1265;138178;-77
2023/08/21 07:46:57;;;;;;;8.30;6.30;;;;;;;31.95;64.30;100946.30;667799;1267;139630;-79
2023/08/21 08:02:02;;;;;;;7.70;5.70;;;;;;;32.74;62.23;100937.90;667649;1276;138513;-79
2023/08/21 08:17:05;;;;;;;12.50;7.00;;;;;;;33.98;57.97;100943.16;673824;1266;139942;-78
2023/08/21 08:32:09;;;;;;;4.30;3.50;;;;;;;34.57;53.38;100942.95;669074;1266;138923;-78
2023/08/21 08:47:14;;;;;;;17.10;12.90;;;;;;;35.30;51.38;100924.92;667633;1271;138992;-77
2023/08/21 09:02:17;;;;;;;6.70;5.10;;;;;;;36.17;48.95;100921.78;667001;1267;139586;-77
2023/08/21 09:17:21;;;;;;;4.10;2.90;;;;;;;36.24;47.36;100921.95;668114;1268;138780;-79
2023/08/21 09:32:24;;;;;;;4.20;2.10;;;;;;;36.24;47.40;100904.27;669291;1266;139306;-76
2023/08/21 09:47:28;;;;;;;2.40;2.10;;;;;;;36.02;46.33;100912.44;670396;1264;139004;-78
2023/08/21 10:02:32;;;;;;;2.90;1.60;;;;;;;36.58;46.39;100899.05;674427;1265;138771;-78
2023/08/21 10:17:36;;;;;;;3.20;1.80;;;;;;;36.57;45.35;100888.96;670736;1265;139837;-79
2023/08/21 10:32:47;;;;;;;7.40;1.60;;;;;;;36.36;45.71;100883.54;670637;1262;138222;-79
2023/08/21 10:47:51;;;;;;;4.50;1.60;;;;;;;36.35;45.35;100876.00;670201;1263;138654;-79
2023/08/21 11:02:54;;;;;;;6.30;1.50;;;;;;;36.29;45.08;100871.86;669888;1263;141196;-77
2023/08/21 11:18:00;;;;;;;3.90;1.60;;;;;;;36.34;44.81;100868.28;668855;1262;139025;-76
2023/08/21 11:33:05;;;;;;;8.90;1.80;;;;;;;35.70;44.92;100861.05;668682;1262;138642;-76
2023/08/21 11:48:08;;;;;;;3.20;1.60;;;;;;;35.17;45.22;100867.73;668484;1263;138165;-76
2023/08/21 12:03:18;;;;;;;6.80;1.40;;;;;;;35.49;44.07;100855.44;668126;1263;139433;-77
2023/08/21 12:18:21;;;;;;;4.20;1.90;;;;;;;35.27;44.66;100868.94;668596;1259;138553;-77
2023/08/21 12:33:26;;;;;;;5.70;1.80;;;;;;;33.83;46.65;100872.64;668214;1263;138618;-80
2023/08/21 12:48:29;;;;;;;3.40;1.80;;;;;;;33.11;48.16;100868.83;668275;1276;137706;-77
2023/08/21 13:03:33;;;;;;;3.00;2.10;;;;;;;33.85;49.00;100863.36;668063;1268;138399;-75
2023/08/21 13:18:37;;;;;;;2.70;2.10;;;;;;;33.89;47.48;100843.96;668789;1262;138274;-75
2023/08/21 13:33:45;;;;;;;3.90;2.40;;;;;;;33.25;48.51;100835.38;672070;1263;138778;-76
2023/08/21 13:48:51;;;;;;;3.70;2.20;;;;;;;32.84;49.52;100819.43;668263;1263;139170;-76
2023/08/21 14:03:54;;;;;;;3.40;2.30;;;;;;;31.96;50.09;100817.67;668214;1263;140058;-76
2023/08/21 14:18:58;;;;;;;6.30;1.90;;;;;;;31.28;51.73;100804.02;668505;1272;138631;-75
2023/08/21 14:34:01;;;;;;;3.30;2.20;;;;;;;30.74;52.88;100802.57;668760;1264;138534;-75
2023/08/21 14:49:04;;;;;;;6.30;2.30;;;;;;;30.32;53.91;100806.73;668839;1266;138711;-76
2023/08/21 15:04:08;;;;;;;14.20;2.60;;;;;;;30.14;54.68;100799.00;668648;1264;203794;-77
2023/08/21 15:19:12;;;;;;;6.50;2.10;;;;;;;30.46;55.03;100785.10;669164;1264;138952;-78
2023/08/21 15:34:15;;;;;;;6.70;3.60;;;;;;;30.70;55.10;100771.51;669786;1263;137910;-77
2023/08/21 15:49:19;;;;;;;5.70;2.30;;;;;;;31.05;54.72;100748.27;669400;1263;139383;-77
2023/08/21 16:04:23;;;;;;;11.40;3.30;;;;;;;30.78;54.79;100740.27;668899;1261;139405;-78
2023/08/21 16:19:26;;;;;;;5.30;2.90;;;;;;;30.16;55.22;100727.86;669271;1273;139996;-78
2023/08/21 16:34:31;;;;;;;4.70;2.30;;;;;;;29.89;55.31;100723.69;669685;1260;138244;-78
2023/08/21 16:49:36;;;;;;;7.10;2.20;;;;;;;29.87;55.55;100736.37;669133;1273;139736;-78
2023/08/21 17:04:40;;;;;;;13.70;4.60;;;;;;;29.51;56.03;100724.42;668820;1259;139287;-78
2023/08/21 17:19:43;;;;;;;9.40;5.70;;;;;;;29.20;56.96;100726.25;670258;1260;140717;-78
2023/08/21 17:34:47;;;;;;;14.50;8.30;;;;;;;28.83;58.01;100724.09;668469;1267;139243;-79
2023/08/21 17:49:53;;;;;;;43.60;5.70;;;;;;;28.44;58.70;100723.95;669650;1273;138568;-79
2023/08/21 18:04:56;;;;;;;29.30;13.70;;;;;;;28.42;59.22;100729.04;669018;1259;140965;-79
2023/08/21 18:20:04;;;;;;;18.50;6.40;;;;;;;28.17;59.86;100743.42;668791;1260;138786;-78
2023/08/21 18:35:10;;;;;;;17.10;6.60;;;;;;;27.69;59.88;100757.61;669589;1264;142774;-78
2023/08/21 18:50:20;;;;;;;9.60;3.80;;;;;;;27.19;60.94;100777.08;669942;1263;138406;-78
2023/08/21 19:05:24;;;;;;;31.20;11.70;;;;;;;26.91;61.59;100776.39;671263;1264;139454;-78
2023/08/21 19:20:27;;;;;;;10.40;3.50;;;;;;;26.66;62.05;100784.52;671204;1263;140279;-78
2023/08/21 19:35:33;;;;;;;10.10;3.90;;;;;;;26.24;63.29;100791.80;670639;1264;138876;-79
2023/08/21 19:50:39;;;;;;;10.90;4.40;;;;;;;26.03;63.92;100808.96;671247;1264;138851;-79
2023/08/21 20:05:42;;;;;;;7.60;3.40;;;;;;;25.70;64.83;100820.52;669813;1260;138537;-78
2023/08/21 20:20:47;;;;;;;11.70;3.60;;;;;;;25.65;65.65;100828.58;671107;1264;139050;-79
2023/08/21 20:35:51;;;;;;;11.60;4.40;;;;;;;25.60;66.11;100836.98;670457;1272;139550;-80
2023/08/21 20:50:56;;;;;;;10.50;3.50;;;;;;;25.66;66.07;100834.52;668204;1266;139108;-79
2023/08/21 21:06:00;;;;;;;10.90;4.50;;;;;;;25.10;68.00;100833.09;668016;1262;139493;-79
2023/08/21 21:21:03;;;;;;;13.00;5.30;;;;;;;24.43;69.35;100838.02;668916;1266;139198;-78
2023/08/21 21:36:06;;;;;;;11.80;5.00;;;;;;;23.67;69.70;100846.88;667944;1276;139474;-80
2023/08/21 21:51:10;;;;;;;8.10;3.10;;;;;;;23.09;72.98;100853.20;670893;1264;139368;-79
2023/08/21 22:06:13;;;;;;;4.70;2.80;;;;;;;22.92;72.36;100851.84;674201;1263;140498;-79
2023/08/21 22:21:17;;;;;;;4.70;2.80;;;;;;;22.95;71.35;100859.50;674147;1269;140379;-80
2023/08/21 22:36:20;;;;;;;9.30;2.40;;;;;;;22.89;70.47;100866.04;671953;1276;140026;-79
2023/08/21 22:51:23;;;;;;;9.40;2.40;;;;;;;22.59;71.45;100872.09;670798;1264;140042;-79
2023/08/21 23:06:26;;;;;;;6.60;2.40;;;;;;;22.27;72.50;100877.39;668633;1264;141386;-79
2023/08/21 23:21:33;;;;;;;9.00;2.60;;;;;;;21.74;73.82;100880.93;670139;1260;139975;-79
2023/08/21 23:36:38;;;;;;;70.90;40.80;;;;;;;20.94;74.91;100872.14;668640;1264;139866;-78
2023/08/21 23:51:41;;;;;;;85.00;47.60;;;;;;;20.35;77.48;100863.66;674986;1264;140632;-79
